Bei Facebook empfehlenBei Twitter postenGoogle plusPinterest

Das Wetter im Erzgebirge am 29.07.2016

Wetter und Klima am 29.07.2016 Holzhau im Erzgebirge (630m ü.NN)
Letzte gemessene Temperatur und Uhrzeit der Messung23:45:00 Uhr13.80 °C
Temperatur (Maximum / Höchstwert) und Uhrzeit der Messung16:15:00 Uhr23.90 °C
Temperatur (Minimum / Tiefstwert) und Uhrzeit der Messung03:00:0013.60 °C
Errechneter Absolutwert der Temperaturschwankungen zwischen Tmin und Tmax des Tages10.30 K
Errechnete Tagesmitteltemperatur17.82917 °C
Gesamt - Niederschlag des Tages (in flüssiger Form)2.08 Liter / m²
Luftdruck (Maximum / Höchstwert) und Zeitpunkt der Messung00:00:00 Uhr1013.60 hPa
Luftdruck (Minimum / Tiefstwert) und Zeitpunkt der Messung05:30:00 Uhr1011.90 hPa
Errechneter Absolutwert der Luftdruckschwankungen des Tages1.70 hPa
Höchste gemessene Windgeschwindigkeit und Uhrzeit der Messung23:45:00 Uhr0.00 km/h
Errechnete Windhäufigkeit in Relation zu den Messwerten des Tages0.00000 %
Niedrigste Windkühle (Windchill) und Zeitpunkt der Messung03:00:00 Uhr13.60 °C
Taupunkt (Maximum / Höchstwert) und Uhrzeit der Messung13:30:00 Uhr18.00 °C
Taupunkt (Minimum / Tiefstwert) und Uhrzeit der Messung23:00:0011.70 °C
Anzahl der automatisch eingelesenen Messwerte 96

Detaillierte Wetter- und Klima- Messwerte für den 29.07.2016 in Holzhau im Erzgebirge (630m ü.NN)
ZeitTemperaturLuftdruckRel. LuftfeuchteWindWindrichtungWindchillTaupunktNiederschlag l/m²
23:45:0013.80 °C1012.20 hPa89.00 %12.00 °C2.08
23:30:0013.80 °C1012.30 hPa88.00 %11.80 °C2.08
23:15:0013.80 °C1012.40 hPa88.00 %11.80 °C2.08
23:00:0013.80 °C1012.30 hPa87.00 %11.70 °C2.08
22:45:0013.90 °C1012.50 hPa87.00 %11.80 °C2.08
22:30:0014.30 °C1012.40 hPa86.00 %12.00 °C2.08
22:15:0014.90 °C1012.50 hPa85.00 %12.40 °C2.08
22:00:0015.20 °C1012.40 hPa85.00 %12.70 °C2.08
21:45:0015.20 °C1012.40 hPa84.00 %12.50 °C2.08
21:30:0015.40 °C1012.50 hPa82.00 %12.30 °C2.08
21:15:0015.90 °C1012.60 hPa81.00 %12.60 °C2.08
21:00:0016.40 °C1012.40 hPa79.00 %12.80 °C2.08
20:45:0017.10 °C1012.30 hPa77.00 %13.00 °C2.08
20:30:0018.00 °C1012.30 hPa74.00 %13.30 °C2.08
20:15:0019.00 °C1012.30 hPa71.00 %13.60 °C2.08
20:00:0020.10 °C1012.40 hPa68.00 %14.00 °C2.08
19:45:0020.90 °C1012.10 hPa66.00 %14.30 °C2.08
19:30:0021.60 °C1012.10 hPa66.00 %15.00 °C2.08
19:15:0022.10 °C1012.10 hPa71.00 %16.60 °C2.08
19:00:0021.30 °C1012.10 hPa70.00 %15.60 °C2.08
18:45:0021.50 °C1012.40 hPa69.00 %15.60 °C2.08
18:30:0021.40 °C1012.30 hPa68.00 %15.30 °C2.08
18:15:0021.80 °C1012.40 hPa67.00 %15.40 °C2.08
18:00:0021.80 °C1012.30 hPa65.00 %14.90 °C2.08
17:45:0022.40 °C1012.50 hPa64.00 %15.30 °C2.08
17:30:0022.90 °C1012.40 hPa65.00 %16.00 °C2.08
17:15:0022.30 °C1012.50 hPa64.00 %15.20 °C2.08
17:00:0022.60 °C1012.50 hPa64.00 %15.40 °C2.08
16:45:0022.90 °C1012.40 hPa64.00 %15.70 °C2.08
16:30:0023.40 °C1012.60 hPa62.00 %15.70 °C2.08
16:15:0023.90 °C1012.30 hPa63.00 %16.40 °C2.08
16:00:0023.60 °C1012.40 hPa65.00 %16.60 °C2.08
15:45:0023.60 °C1012.50 hPa66.00 %16.90 °C2.08
15:30:0023.30 °C1012.60 hPa67.00 %16.80 °C2.08
15:15:0022.60 °C1012.50 hPa70.00 %16.90 °C2.08
15:00:0021.30 °C1012.50 hPa70.00 %15.60 °C2.08
14:45:0021.80 °C1012.70 hPa69.00 %15.90 °C2.08
14:30:0021.90 °C1012.80 hPa70.00 %16.20 °C2.08
14:15:0022.40 °C1012.90 hPa71.00 %16.90 °C2.08
14:00:0022.50 °C1012.90 hPa73.00 %17.40 °C2.08
13:45:0021.90 °C1013.00 hPa76.00 %17.50 °C2.08
13:30:0021.80 °C1013.00 hPa79.00 %18.00 °C2.08
13:15:0020.50 °C1013.00 hPa82.00 %17.30 °C2.08
13:00:0019.60 °C1013.00 hPa82.00 %16.40 °C2.08
12:45:0019.20 °C1013.20 hPa83.00 %16.20 °C2.08
12:30:0019.20 °C1013.20 hPa84.00 %16.40 °C2.08
12:15:0018.80 °C1013.10 hPa84.00 %16.00 °C2.08
12:00:0018.40 °C1013.20 hPa83.00 %15.50 °C2.08
11:45:0018.90 °C1013.10 hPa80.00 %15.40 °C2.08
11:30:0019.60 °C1013.10 hPa78.00 %15.70 °C1.56
11:15:0020.20 °C1012.90 hPa76.00 %15.80 °C1.56
11:00:0020.30 °C1012.80 hPa77.00 %16.10 °C1.56
10:45:0020.10 °C1013.00 hPa76.00 %15.70 °C1.56
10:30:0020.50 °C1013.00 hPa75.00 %15.90 °C1.56
10:15:0020.90 °C1012.80 hPa77.00 %16.70 °C1.56
10:00:0020.60 °C1012.80 hPa78.00 %16.60 °C1.56
09:45:0020.30 °C1012.60 hPa79.00 %16.50 °C1.56
09:30:0020.10 °C1012.50 hPa83.00 %17.10 °C1.56
09:15:0019.20 °C1012.30 hPa85.00 %16.60 °C1.56
09:00:0018.90 °C1012.40 hPa88.00 %16.90 °C1.56
08:45:0018.40 °C1012.20 hPa90.00 %16.70 °C1.56
08:30:0018.50 °C1012.20 hPa93.00 %17.30 °C1.56
08:15:0018.00 °C1012.20 hPa94.00 %17.00 °C1.56
08:00:0017.70 °C1012.10 hPa95.00 %16.90 °C1.56
07:45:0016.60 °C1012.00 hPa96.00 %16.00 °C1.56
07:30:0015.60 °C1012.00 hPa96.00 %15.00 °C1.56
07:15:0014.90 °C1012.00 hPa96.00 %14.30 °C1.56
07:00:0014.70 °C1012.00 hPa96.00 %14.10 °C1.56
06:45:0014.20 °C1012.00 hPa96.00 %13.60 °C1.56
06:30:0013.90 °C1012.00 hPa96.00 %13.30 °C1.56
06:15:0013.90 °C1012.10 hPa95.00 %13.10 °C1.56
06:00:0013.90 °C1012.20 hPa95.00 %13.10 °C1.56
05:45:0013.90 °C1012.10 hPa95.00 %13.10 °C1.56
05:30:0013.90 °C1011.90 hPa95.00 %13.10 °C1.56
05:15:0013.90 °C1012.20 hPa95.00 %13.10 °C1.56
05:00:0013.90 °C1012.20 hPa95.00 %13.10 °C1.56
04:45:0013.90 °C1012.40 hPa95.00 %13.10 °C1.56
04:30:0013.90 °C1012.20 hPa95.00 %13.10 °C1.56
04:15:0013.90 °C1012.20 hPa95.00 %13.10 °C1.04
04:00:0013.90 °C1012.10 hPa95.00 %13.10 °C1.04
03:45:0013.90 °C1012.30 hPa94.00 %13.00 °C1.04
03:30:0013.90 °C1012.40 hPa94.00 %13.00 °C1.04
03:15:0013.80 °C1012.30 hPa94.00 %12.90 °C 
03:00:0013.60 °C1012.40 hPa94.00 %12.70 °C 
02:45:0013.60 °C1012.60 hPa94.00 %12.70 °C 
02:30:0013.80 °C1012.80 hPa93.00 %12.70 °C 
02:15:0013.90 °C1012.70 hPa94.00 %13.00 °C 
02:00:0014.10 °C1012.70 hPa94.00 %13.10 °C 
01:45:0014.20 °C1012.80 hPa94.00 %13.20 °C 
01:30:0014.30 °C1012.90 hPa94.00 %13.30 °C 
01:15:0014.30 °C1013.20 hPa93.00 %13.20 °C 
01:00:0014.20 °C1013.20 hPa93.00 %13.10 °C 
00:45:0014.20 °C1013.20 hPa93.00 %13.10 °C 
00:30:0014.20 °C1013.40 hPa92.00 %12.90 °C 
00:15:0014.30 °C1013.40 hPa92.00 %13.00 °C 
00:00:0014.40 °C1013.60 hPa92.00 %13.10 °C 

Permanenter Link zu dieser Seite: Wetter im Erzgebirge am 29.07.2016
Performance-Info: Die Erstellung der Seite / Statistik(en) / Tabelle(n) erforderte 5 Datenbankserver-Abfrage(n) und dauerte 102 Millisekunden. (Dieser Messwert ist von der Gesamt-Auslastung des Servers abhängig.)
Erzgebirge - Wetter | Erzgebirge - Wetter (Mobilgeräte) | Komplette Klimadatenbank